sensor_id;sensor_type;location;lat;lon;timestamp;pressure;altitude;pressure_sealevel;temperature;humidity
84957;BME280;75252;45.438;-73.814;2024-01-30T00:01:56;101891.00;;;-2.12;73.85
84957;BME280;75252;45.438;-73.814;2024-01-30T00:04:22;101895.19;;;-2.17;73.45
84957;BME280;75252;45.438;-73.814;2024-01-30T00:06:47;101889.09;;;-2.19;73.93
84957;BME280;75252;45.438;-73.814;2024-01-30T00:09:13;101891.00;;;-2.12;73.46
84957;BME280;75252;45.438;-73.814;2024-01-30T00:11:39;101903.03;;;-2.16;73.88
84957;BME280;75252;45.438;-73.814;2024-01-30T00:14:05;101910.81;;;-2.16;74.02
84957;BME280;75252;45.438;-73.814;2024-01-30T00:16:31;101916.94;;;-2.14;74.20
84957;BME280;75252;45.438;-73.814;2024-01-30T00:18:57;101924.72;;;-2.14;74.71
84957;BME280;75252;45.438;-73.814;2024-01-30T00:21:23;101915.38;;;-2.07;75.17
84957;BME280;75252;45.438;-73.814;2024-01-30T00:23:49;101920.66;;;-2.04;74.85
84957;BME280;75252;45.438;-73.814;2024-01-30T00:26:15;101919.38;;;-2.20;73.42
84957;BME280;75252;45.438;-73.814;2024-01-30T00:28:42;101929.94;;;-2.14;73.47
84957;BME280;75252;45.438;-73.814;2024-01-30T00:31:08;101941.34;;;-2.09;73.90
84957;BME280;75252;45.438;-73.814;2024-01-30T00:33:40;101945.44;;;-2.17;73.31
84957;BME280;75252;45.438;-73.814;2024-01-30T00:36:08;101944.34;;;-2.25;72.92
84957;BME280;75252;45.438;-73.814;2024-01-30T00:38:34;101950.38;;;-2.26;73.87
84957;BME280;75252;45.438;-73.814;2024-01-30T00:41:00;101943.56;;;-2.22;75.65
84957;BME280;75252;45.438;-73.814;2024-01-30T00:43:27;101946.03;;;-2.27;74.72
84957;BME280;75252;45.438;-73.814;2024-01-30T00:45:53;101952.97;;;-2.26;74.31
84957;BME280;75252;45.438;-73.814;2024-01-30T00:48:20;101938.97;;;-2.31;74.28
84957;BME280;75252;45.438;-73.814;2024-01-30T00:50:46;101951.25;;;-2.25;74.19
84957;BME280;75252;45.438;-73.814;2024-01-30T00:53:12;101957.22;;;-2.28;74.97
84957;BME280;75252;45.438;-73.814;2024-01-30T00:55:38;101958.06;;;-2.30;73.10
84957;BME280;75252;45.438;-73.814;2024-01-30T00:58:04;101959.75;;;-2.31;73.38
84957;BME280;75252;45.438;-73.814;2024-01-30T01:00:31;101965.91;;;-2.27;73.38
84957;BME280;75252;45.438;-73.814;2024-01-30T01:03:01;101955.50;;;-2.29;74.54
84957;BME280;75252;45.438;-73.814;2024-01-30T01:05:27;101963.41;;;-2.24;73.63
84957;BME280;75252;45.438;-73.814;2024-01-30T01:07:53;101955.56;;;-2.26;74.27
84957;BME280;75252;45.438;-73.814;2024-01-30T01:10:19;101962.31;;;-2.32;73.30
84957;BME280;75252;45.438;-73.814;2024-01-30T01:12:45;101956.31;;;-2.30;74.85
84957;BME280;75252;45.438;-73.814;2024-01-30T01:15:11;101958.72;;;-2.36;74.65
84957;BME280;75252;45.438;-73.814;2024-01-30T01:17:38;101967.25;;;-2.41;73.35
84957;BME280;75252;45.438;-73.814;2024-01-30T01:20:05;101963.94;;;-2.36;73.74
84957;BME280;75252;45.438;-73.814;2024-01-30T01:22:32;101964.56;;;-2.44;74.43
84957;BME280;75252;45.438;-73.814;2024-01-30T01:24:58;101964.63;;;-2.41;74.04
84957;BME280;75252;45.438;-73.814;2024-01-30T01:27:25;101971.59;;;-2.40;75.15
84957;BME280;75252;45.438;-73.814;2024-01-30T01:29:51;101970.72;;;-2.41;75.25
84957;BME280;75252;45.438;-73.814;2024-01-30T01:32:17;101965.56;;;-2.39;75.45
84957;BME280;75252;45.438;-73.814;2024-01-30T01:34:43;101970.28;;;-2.56;74.30
84957;BME280;75252;45.438;-73.814;2024-01-30T01:37:09;101966.97;;;-2.50;74.23
84957;BME280;75252;45.438;-73.814;2024-01-30T01:39:35;101973.06;;;-2.50;74.09
84957;BME280;75252;45.438;-73.814;2024-01-30T01:42:01;101973.88;;;-2.51;74.91
84957;BME280;75252;45.438;-73.814;2024-01-30T01:44:27;101980.78;;;-2.51;74.37
84957;BME280;75252;45.438;-73.814;2024-01-30T01:46:54;101982.56;;;-2.50;74.36
84957;BME280;75252;45.438;-73.814;2024-01-30T01:49:25;101968.50;;;-2.57;74.40
84957;BME280;75252;45.438;-73.814;2024-01-30T01:51:54;101971.84;;;-2.61;74.94
84957;BME280;75252;45.438;-73.814;2024-01-30T01:54:22;101962.16;;;-2.67;75.23
84957;BME280;75252;45.438;-73.814;2024-01-30T01:56:49;101963.31;;;-2.57;75.50
84957;BME280;75252;45.438;-73.814;2024-01-30T01:59:15;101965.66;;;-2.66;74.53
84957;BME280;75252;45.438;-73.814;2024-01-30T02:01:41;101969.16;;;-2.65;74.54
84957;BME280;75252;45.438;-73.814;2024-01-30T02:04:08;101966.06;;;-2.52;74.92
84957;BME280;75252;45.438;-73.814;2024-01-30T02:06:34;101970.28;;;-2.56;76.42
84957;BME280;75252;45.438;-73.814;2024-01-30T02:09:00;101982.38;;;-2.56;75.35
84957;BME280;75252;45.438;-73.814;2024-01-30T02:11:28;101975.47;;;-2.56;73.74
84957;BME280;75252;45.438;-73.814;2024-01-30T02:13:53;101973.63;;;-2.60;75.22
84957;BME280;75252;45.438;-73.814;2024-01-30T02:16:19;101978.72;;;-2.63;74.61
84957;BME280;75252;45.438;-73.814;2024-01-30T02:18:45;101979.56;;;-2.64;74.45
84957;BME280;75252;45.438;-73.814;2024-01-30T02:21:16;101971.97;;;-2.58;74.73
84957;BME280;75252;45.438;-73.814;2024-01-30T02:23:43;101977.25;;;-2.53;74.69
84957;BME280;75252;45.438;-73.814;2024-01-30T02:26:10;101971.97;;;-2.58;75.51
84957;BME280;75252;45.438;-73.814;2024-01-30T02:28:37;101980.53;;;-2.60;73.98
84957;BME280;75252;45.438;-73.814;2024-01-30T02:31:04;101983.09;;;-2.62;74.48
84957;BME280;75252;45.438;-73.814;2024-01-30T02:33:30;101982.97;;;-2.65;74.19
84957;BME280;75252;45.438;-73.814;2024-01-30T02:35:55;101995.94;;;-2.65;73.62
84957;BME280;75252;45.438;-73.814;2024-01-30T02:38:21;101999.56;;;-2.61;74.27
84957;BME280;75252;45.438;-73.814;2024-01-30T02:40:48;102000.41;;;-2.61;74.13
84957;BME280;75252;45.438;-73.814;2024-01-30T02:43:16;101998.69;;;-2.60;74.72
84957;BME280;75252;45.438;-73.814;2024-01-30T02:45:42;101997.69;;;-2.65;73.65
84957;BME280;75252;45.438;-73.814;2024-01-30T02:48:08;102001.16;;;-2.65;74.84
84957;BME280;75252;45.438;-73.814;2024-01-30T02:50:34;102010.00;;;-2.58;75.19
84957;BME280;75252;45.438;-73.814;2024-01-30T02:53:00;102005.47;;;-2.65;74.24
84957;BME280;75252;45.438;-73.814;2024-01-30T02:55:26;102007.03;;;-2.71;74.72
84957;BME280;75252;45.438;-73.814;2024-01-30T02:57:52;102007.97;;;-2.69;75.27
84957;BME280;75252;45.438;-73.814;2024-01-30T03:00:19;102017.41;;;-2.71;75.70
84957;BME280;75252;45.438;-73.814;2024-01-30T03:02:45;102016.34;;;-2.77;74.30
84957;BME280;75252;45.438;-73.814;2024-01-30T03:05:11;102013.13;;;-2.70;75.41
84957;BME280;75252;45.438;-73.814;2024-01-30T03:07:37;102018.34;;;-2.69;74.88
84957;BME280;75252;45.438;-73.814;2024-01-30T03:10:04;102014.03;;;-2.68;76.38
84957;BME280;75252;45.438;-73.814;2024-01-30T03:12:30;102012.47;;;-2.63;75.53
84957;BME280;75252;45.438;-73.814;2024-01-30T03:14:56;102013.19;;;-2.67;73.75
84957;BME280;75252;45.438;-73.814;2024-01-30T03:17:22;102010.59;;;-2.67;74.64
84957;BME280;75252;45.438;-73.814;2024-01-30T03:19:48;102018.50;;;-2.64;74.49
84957;BME280;75252;45.438;-73.814;2024-01-30T03:22:13;102018.56;;;-2.61;75.06
84957;BME280;75252;45.438;-73.814;2024-01-30T03:24:39;102016.88;;;-2.60;75.41
84957;BME280;75252;45.438;-73.814;2024-01-30T03:27:05;102015.00;;;-2.64;75.69
84957;BME280;75252;45.438;-73.814;2024-01-30T03:29:31;102017.66;;;-2.63;74.30
84957;BME280;75252;45.438;-73.814;2024-01-30T03:31:57;102012.53;;;-2.61;74.98
84957;BME280;75252;45.438;-73.814;2024-01-30T03:34:23;102021.34;;;-2.55;75.44
84957;BME280;75252;45.438;-73.814;2024-01-30T03:36:49;102014.47;;;-2.54;74.21
84957;BME280;75252;45.438;-73.814;2024-01-30T03:39:14;102012.69;;;-2.55;75.27
84957;BME280;75252;45.438;-73.814;2024-01-30T03:41:42;102003.94;;;-2.59;74.32
84957;BME280;75252;45.438;-73.814;2024-01-30T03:44:10;102006.59;;;-2.57;74.18
84957;BME280;75252;45.438;-73.814;2024-01-30T03:46:36;102009.03;;;-2.62;75.75
84957;BME280;75252;45.438;-73.814;2024-01-30T03:49:01;102019.56;;;-2.57;73.82
84957;BME280;75252;45.438;-73.814;2024-01-30T03:51:27;102011.50;;;-2.67;74.90
84957;BME280;75252;45.438;-73.814;2024-01-30T03:53:53;102011.53;;;-2.65;74.94
84957;BME280;75252;45.438;-73.814;2024-01-30T03:56:19;102004.47;;;-2.69;75.16
84957;BME280;75252;45.438;-73.814;2024-01-30T03:58:45;102015.75;;;-2.69;74.81
84957;BME280;75252;45.438;-73.814;2024-01-30T04:01:14;102009.75;;;-2.67;74.87
84957;BME280;75252;45.438;-73.814;2024-01-30T04:03:41;101999.28;;;-2.69;74.76
84957;BME280;75252;45.438;-73.814;2024-01-30T04:06:07;102015.59;;;-2.73;74.47
84957;BME280;75252;45.438;-73.814;2024-01-30T04:08:34;102014.94;;;-2.67;75.53
84957;BME280;75252;45.438;-73.814;2024-01-30T04:11:04;102002.78;;;-2.69;75.44
84957;BME280;75252;45.438;-73.814;2024-01-30T04:13:31;102020.97;;;-2.67;76.59
84957;BME280;75252;45.438;-73.814;2024-01-30T04:15:59;102015.72;;;-2.70;75.37
84957;BME280;75252;45.438;-73.814;2024-01-30T04:18:27;102030.56;;;-2.66;75.75
84957;BME280;75252;45.438;-73.814;2024-01-30T04:20:53;102028.78;;;-2.67;75.48
84957;BME280;75252;45.438;-73.814;2024-01-30T04:23:19;102038.38;;;-2.64;75.95
84957;BME280;75252;45.438;-73.814;2024-01-30T04:25:44;102043.53;;;-2.66;76.53
84957;BME280;75252;45.438;-73.814;2024-01-30T04:28:10;102045.44;;;-2.60;74.46
84957;BME280;75252;45.438;-73.814;2024-01-30T04:30:39;102040.16;;;-2.63;75.56
84957;BME280;75252;45.438;-73.814;2024-01-30T04:33:05;102044.50;;;-2.62;75.42
84957;BME280;75252;45.438;-73.814;2024-01-30T04:35:32;102045.34;;;-2.63;74.68
84957;BME280;75252;45.438;-73.814;2024-01-30T04:37:58;102045.22;;;-2.67;73.26
84957;BME280;75252;45.438;-73.814;2024-01-30T04:40:24;102049.72;;;-2.61;72.67
84957;BME280;75252;45.438;-73.814;2024-01-30T04:42:49;102052.88;;;-2.71;71.91
84957;BME280;75252;45.438;-73.814;2024-01-30T04:45:16;102057.25;;;-2.70;71.66
84957;BME280;75252;45.438;-73.814;2024-01-30T04:47:42;102055.28;;;-2.77;71.34
84957;BME280;75252;45.438;-73.814;2024-01-30T04:50:08;102055.38;;;-2.74;70.41
84957;BME280;75252;45.438;-73.814;2024-01-30T04:52:35;102056.19;;;-2.75;71.54
84957;BME280;75252;45.438;-73.814;2024-01-30T04:55:01;102054.41;;;-2.78;70.36
84957;BME280;75252;45.438;-73.814;2024-01-30T04:57:27;102057.63;;;-2.85;73.16
84957;BME280;75252;45.438;-73.814;2024-01-30T04:59:53;102069.78;;;-2.84;71.85
84957;BME280;75252;45.438;-73.814;2024-01-30T05:02:19;102076.81;;;-2.81;73.54
84957;BME280;75252;45.438;-73.814;2024-01-30T05:04:45;102082.72;;;-2.85;71.57
84957;BME280;75252;45.438;-73.814;2024-01-30T05:07:11;102084.59;;;-2.81;72.04
84957;BME280;75252;45.438;-73.814;2024-01-30T05:09:37;102088.94;;;-2.80;72.23
84957;BME280;75252;45.438;-73.814;2024-01-30T05:12:02;102091.47;;;-2.82;72.06
84957;BME280;75252;45.438;-73.814;2024-01-30T05:14:28;102089.69;;;-2.83;72.41
84957;BME280;75252;45.438;-73.814;2024-01-30T05:16:54;102083.56;;;-2.85;72.21
84957;BME280;75252;45.438;-73.814;2024-01-30T05:19:20;102087.09;;;-2.83;71.42
84957;BME280;75252;45.438;-73.814;2024-01-30T05:21:49;102085.41;;;-2.82;73.28
84957;BME280;75252;45.438;-73.814;2024-01-30T05:24:15;102090.63;;;-2.81;72.29
84957;BME280;75252;45.438;-73.814;2024-01-30T05:26:41;102092.09;;;-2.89;71.07
84957;BME280;75252;45.438;-73.814;2024-01-30T05:29:07;102094.81;;;-2.86;70.34
84957;BME280;75252;45.438;-73.814;2024-01-30T05:31:33;102092.81;;;-2.93;71.49
84957;BME280;75252;45.438;-73.814;2024-01-30T05:34:00;102088.47;;;-2.94;70.52
84957;BME280;75252;45.438;-73.814;2024-01-30T05:36:26;102092.06;;;-2.90;69.92
84957;BME280;75252;45.438;-73.814;2024-01-30T05:38:52;102096.25;;;-2.94;70.66
84957;BME280;75252;45.438;-73.814;2024-01-30T05:41:18;102103.06;;;-2.97;71.05
84957;BME280;75252;45.438;-73.814;2024-01-30T05:43:44;102111.59;;;-3.01;71.49
84957;BME280;75252;45.438;-73.814;2024-01-30T05:46:09;102098.44;;;-3.06;72.24
84957;BME280;75252;45.438;-73.814;2024-01-30T05:48:35;102102.03;;;-3.02;72.12
84957;BME280;75252;45.438;-73.814;2024-01-30T05:51:02;102113.03;;;-3.09;73.15
84957;BME280;75252;45.438;-73.814;2024-01-30T05:53:29;102104.28;;;-3.13;73.17
84957;BME280;75252;45.438;-73.814;2024-01-30T05:55:55;102105.09;;;-3.14;73.36
84957;BME280;75252;45.438;-73.814;2024-01-30T05:58:21;102107.59;;;-3.17;73.42
84957;BME280;75252;45.438;-73.814;2024-01-30T06:00:47;102107.13;;;-3.30;72.99
84957;BME280;75252;45.438;-73.814;2024-01-30T06:03:14;102107.34;;;-3.24;72.73
84957;BME280;75252;45.438;-73.814;2024-01-30T06:05:40;102112.75;;;-3.42;71.70
84957;BME280;75252;45.438;-73.814;2024-01-30T06:08:06;102118.56;;;-3.49;70.97
84957;BME280;75252;45.438;-73.814;2024-01-30T06:10:32;102115.78;;;-3.53;70.89
84957;BME280;75252;45.438;-73.814;2024-01-30T06:12:57;102128.66;;;-3.57;70.17
84957;BME280;75252;45.438;-73.814;2024-01-30T06:15:23;102135.31;;;-3.63;70.82
84957;BME280;75252;45.438;-73.814;2024-01-30T06:17:49;102128.44;;;-3.63;70.63
84957;BME280;75252;45.438;-73.814;2024-01-30T06:20:15;102127.31;;;-3.69;69.86
84957;BME280;75252;45.438;-73.814;2024-01-30T06:22:41;102136.59;;;-3.76;71.11
84957;BME280;75252;45.438;-73.814;2024-01-30T06:25:07;102135.53;;;-3.81;70.90
84957;BME280;75252;45.438;-73.814;2024-01-30T06:27:33;102138.50;;;-3.94;71.64
84957;BME280;75252;45.438;-73.814;2024-01-30T06:29:59;102133.13;;;-3.98;71.90
84957;BME280;75252;45.438;-73.814;2024-01-30T06:32:25;102140.19;;;-3.94;71.10
84957;BME280;75252;45.438;-73.814;2024-01-30T06:34:52;102151.22;;;-4.00;72.85
84957;BME280;75252;45.438;-73.814;2024-01-30T06:37:18;102152.81;;;-4.03;71.92
84957;BME280;75252;45.438;-73.814;2024-01-30T06:39:44;102146.19;;;-4.19;71.62
84957;BME280;75252;45.438;-73.814;2024-01-30T06:42:10;102146.00;;;-4.23;70.41
84957;BME280;75252;45.438;-73.814;2024-01-30T06:44:37;102138.88;;;-4.29;71.28
84957;BME280;75252;45.438;-73.814;2024-01-30T06:47:03;102151.38;;;-4.39;70.88
84957;BME280;75252;45.438;-73.814;2024-01-30T06:49:29;102145.50;;;-4.35;71.51
84957;BME280;75252;45.438;-73.814;2024-01-30T06:51:54;102140.50;;;-4.53;72.00
84957;BME280;75252;45.438;-73.814;2024-01-30T06:54:21;102145.41;;;-4.59;71.12
84957;BME280;75252;45.438;-73.814;2024-01-30T06:56:47;102151.97;;;-4.67;71.09
84957;BME280;75252;45.438;-73.814;2024-01-30T06:59:12;102150.16;;;-4.70;71.15
84957;BME280;75252;45.438;-73.814;2024-01-30T07:01:38;102158.75;;;-4.71;71.51
84957;BME280;75252;45.438;-73.814;2024-01-30T07:04:04;102159.50;;;-4.73;70.89
84957;BME280;75252;45.438;-73.814;2024-01-30T07:06:30;102169.16;;;-4.69;72.77
84957;BME280;75252;45.438;-73.814;2024-01-30T07:08:56;102171.47;;;-4.75;71.98
84957;BME280;75252;45.438;-73.814;2024-01-30T07:11:22;102167.63;;;-4.85;70.64
84957;BME280;75252;45.438;-73.814;2024-01-30T07:13:50;102172.97;;;-4.82;70.97
84957;BME280;75252;45.438;-73.814;2024-01-30T07:16:17;102184.84;;;-4.85;71.25
84957;BME280;75252;45.438;-73.814;2024-01-30T07:18:43;102185.75;;;-4.85;72.12
84957;BME280;75252;45.438;-73.814;2024-01-30T07:21:09;102180.06;;;-4.97;70.79
84957;BME280;75252;45.438;-73.814;2024-01-30T07:23:35;102183.97;;;-5.06;71.12
84957;BME280;75252;45.438;-73.814;2024-01-30T07:26:07;102176.78;;;-5.13;71.78
84957;BME280;75252;45.438;-73.814;2024-01-30T07:28:34;102184.84;;;-5.06;71.52
84957;BME280;75252;45.438;-73.814;2024-01-30T07:31:01;102186.44;;;-5.09;71.87
84957;BME280;75252;45.438;-73.814;2024-01-30T07:33:27;102187.91;;;-5.14;72.33
84957;BME280;75252;45.438;-73.814;2024-01-30T07:35:53;102180.41;;;-5.29;71.51
84957;BME280;75252;45.438;-73.814;2024-01-30T07:38:19;102196.59;;;-5.33;71.52
84957;BME280;75252;45.438;-73.814;2024-01-30T07:40:45;102200.13;;;-5.31;71.32
84957;BME280;75252;45.438;-73.814;2024-01-30T07:43:11;102208.84;;;-5.29;71.15
84957;BME280;75252;45.438;-73.814;2024-01-30T07:45:37;102204.34;;;-5.33;71.40
84957;BME280;75252;45.438;-73.814;2024-01-30T07:48:05;102204.25;;;-5.35;71.81
84957;BME280;75252;45.438;-73.814;2024-01-30T07:50:31;102203.84;;;-5.44;70.83
84957;BME280;75252;45.438;-73.814;2024-01-30T07:52:59;102203.78;;;-5.45;70.71
84957;BME280;75252;45.438;-73.814;2024-01-30T07:55:25;102213.97;;;-5.48;70.32
84957;BME280;75252;45.438;-73.814;2024-01-30T07:57:54;102204.59;;;-5.65;70.48
84957;BME280;75252;45.438;-73.814;2024-01-30T08:00:21;102213.19;;;-5.66;70.99
84957;BME280;75252;45.438;-73.814;2024-01-30T08:02:47;102215.75;;;-5.66;70.29
84957;BME280;75252;45.438;-73.814;2024-01-30T08:05:14;102209.44;;;-5.73;70.88
84957;BME280;75252;45.438;-73.814;2024-01-30T08:07:43;102216.44;;;-5.70;69.67
84957;BME280;75252;45.438;-73.814;2024-01-30T08:10:11;102221.31;;;-5.76;68.86
84957;BME280;75252;45.438;-73.814;2024-01-30T08:12:38;102220.91;;;-5.85;69.06
84957;BME280;75252;45.438;-73.814;2024-01-30T08:15:05;102226.19;;;-5.82;70.26
84957;BME280;75252;45.438;-73.814;2024-01-30T08:17:31;102226.19;;;-5.82;69.42
84957;BME280;75252;45.438;-73.814;2024-01-30T08:19:57;102228.38;;;-5.91;68.43
84957;BME280;75252;45.438;-73.814;2024-01-30T08:22:22;102229.88;;;-5.96;67.82
84957;BME280;75252;45.438;-73.814;2024-01-30T08:24:48;102234.00;;;-6.00;66.95
84957;BME280;75252;45.438;-73.814;2024-01-30T08:27:14;102233.66;;;-6.07;67.12
84957;BME280;75252;45.438;-73.814;2024-01-30T08:29:40;102241.25;;;-6.10;67.04
84957;BME280;75252;45.438;-73.814;2024-01-30T08:32:06;102239.63;;;-6.08;67.54
84957;BME280;75252;45.438;-73.814;2024-01-30T08:34:33;102236.81;;;-6.13;67.66
84957;BME280;75252;45.438;-73.814;2024-01-30T08:36:59;102227.06;;;-6.18;68.69
84957;BME280;75252;45.438;-73.814;2024-01-30T08:39:24;102233.06;;;-6.19;67.49
84957;BME280;75252;45.438;-73.814;2024-01-30T08:41:50;102233.88;;;-6.20;66.73
84957;BME280;75252;45.438;-73.814;2024-01-30T08:44:17;102233.88;;;-6.20;67.43
84957;BME280;75252;45.438;-73.814;2024-01-30T08:46:44;102237.56;;;-6.15;66.46
84957;BME280;75252;45.438;-73.814;2024-01-30T08:49:11;102233.72;;;-6.23;67.68
84957;BME280;75252;45.438;-73.814;2024-01-30T08:51:39;102243.38;;;-6.19;66.93
84957;BME280;75252;45.438;-73.814;2024-01-30T08:54:05;102250.19;;;-6.21;67.61
84957;BME280;75252;45.438;-73.814;2024-01-30T08:56:31;102257.63;;;-6.28;65.99
84957;BME280;75252;45.438;-73.814;2024-01-30T08:58:57;102256.94;;;-6.41;64.32
84957;BME280;75252;45.438;-73.814;2024-01-30T09:01:23;102260.78;;;-6.33;65.60
84957;BME280;75252;45.438;-73.814;2024-01-30T09:03:48;102260.97;;;-6.46;64.26
84957;BME280;75252;45.438;-73.814;2024-01-30T09:06:14;102259.41;;;-6.60;63.80
84957;BME280;75252;45.438;-73.814;2024-01-30T09:08:40;102265.22;;;-6.64;64.28
84957;BME280;75252;45.438;-73.814;2024-01-30T09:11:10;102266.78;;;-6.68;64.11
84957;BME280;75252;45.438;-73.814;2024-01-30T09:13:36;102264.38;;;-6.81;63.37
84957;BME280;75252;45.438;-73.814;2024-01-30T09:16:03;102273.47;;;-6.71;63.16
84957;BME280;75252;45.438;-73.814;2024-01-30T09:18:29;102277.41;;;-6.78;63.38
84957;BME280;75252;45.438;-73.814;2024-01-30T09:20:54;102280.16;;;-6.75;64.97
84957;BME280;75252;45.438;-73.814;2024-01-30T09:23:20;102277.94;;;-6.85;63.41
84957;BME280;75252;45.438;-73.814;2024-01-30T09:25:47;102279.41;;;-6.90;63.38
84957;BME280;75252;45.438;-73.814;2024-01-30T09:28:13;102288.00;;;-6.89;63.47
84957;BME280;75252;45.438;-73.814;2024-01-30T09:30:39;102286.72;;;-6.97;64.63
84957;BME280;75252;45.438;-73.814;2024-01-30T09:33:05;102287.94;;;-7.07;63.88
84957;BME280;75252;45.438;-73.814;2024-01-30T09:35:31;102291.91;;;-7.13;63.53
84957;BME280;75252;45.438;-73.814;2024-01-30T09:37:57;102295.34;;;-7.13;65.92
84957;BME280;75252;45.438;-73.814;2024-01-30T09:40:24;102294.56;;;-7.12;63.68
84957;BME280;75252;45.438;-73.814;2024-01-30T09:42:50;102289.88;;;-7.19;65.93
84957;BME280;75252;45.438;-73.814;2024-01-30T09:45:18;102291.72;;;-7.17;65.44
84957;BME280;75252;45.438;-73.814;2024-01-30T09:47:46;102295.34;;;-7.13;65.77
84957;BME280;75252;45.438;-73.814;2024-01-30T09:50:13;102289.16;;;-7.17;66.43
84957;BME280;75252;45.438;-73.814;2024-01-30T09:52:40;102296.75;;;-7.20;65.23
84957;BME280;75252;45.438;-73.814;2024-01-30T09:55:07;102294.69;;;-7.09;67.64
84957;BME280;75252;45.438;-73.814;2024-01-30T09:57:34;102291.59;;;-7.20;65.71
84957;BME280;75252;45.438;-73.814;2024-01-30T10:00:00;102282.78;;;-7.23;64.60
84957;BME280;75252;45.438;-73.814;2024-01-30T10:02:25;102294.22;;;-7.34;66.25
84957;BME280;75252;45.438;-73.814;2024-01-30T10:04:52;102294.72;;;-7.41;64.88
84957;BME280;75252;45.438;-73.814;2024-01-30T10:07:18;102292.22;;;-7.40;67.00
84957;BME280;75252;45.438;-73.814;2024-01-30T10:09:45;102292.03;;;-7.43;64.63
84957;BME280;75252;45.438;-73.814;2024-01-30T10:12:12;102285.69;;;-7.49;65.85
84957;BME280;75252;45.438;-73.814;2024-01-30T10:14:39;102283.50;;;-7.58;66.21
84957;BME280;75252;45.438;-73.814;2024-01-30T10:17:08;102292.09;;;-7.57;66.28
84957;BME280;75252;45.438;-73.814;2024-01-30T10:19:35;102293.16;;;-7.54;65.38
84957;BME280;75252;45.438;-73.814;2024-01-30T10:22:02;102292.03;;;-7.59;66.06
84957;BME280;75252;45.438;-73.814;2024-01-30T10:24:28;102298.03;;;-7.58;65.74
84957;BME280;75252;45.438;-73.814;2024-01-30T10:26:55;102300.28;;;-7.64;66.27
84957;BME280;75252;45.438;-73.814;2024-01-30T10:29:21;102304.31;;;-7.69;64.65
84957;BME280;75252;45.438;-73.814;2024-01-30T10:32:04;102305.03;;;-7.72;65.69
84957;BME280;75252;45.438;-73.814;2024-01-30T10:34:30;102297.94;;;-7.76;65.53
84957;BME280;75252;45.438;-73.814;2024-01-30T10:37:07;102303.19;;;-7.74;64.58
84957;BME280;75252;45.438;-73.814;2024-01-30T10:39:38;102297.06;;;-7.76;66.35
84957;BME280;75252;45.438;-73.814;2024-01-30T10:42:06;102301.59;;;-7.72;65.16
84957;BME280;75252;45.438;-73.814;2024-01-30T10:45:22;102303.50;;;-7.68;66.12
84957;BME280;75252;45.438;-73.814;2024-01-30T10:47:28;102311.53;;;-7.78;65.69
84957;BME280;75252;45.438;-73.814;2024-01-30T10:49:55;102317.81;;;-7.73;65.35
84957;BME280;75252;45.438;-73.814;2024-01-30T10:52:23;102315.25;;;-7.73;66.84
84957;BME280;75252;45.438;-73.814;2024-01-30T10:54:51;102312.50;;;-7.76;65.35
84957;BME280;75252;45.438;-73.814;2024-01-30T10:57:18;102318.53;;;-7.76;65.48
84957;BME280;75252;45.438;-73.814;2024-01-30T10:59:45;102341.47;;;-7.80;64.45
84957;BME280;75252;45.438;-73.814;2024-01-30T11:02:12;102334.38;;;-7.84;65.74
84957;BME280;75252;45.438;-73.814;2024-01-30T11:04:41;102340.94;;;-7.89;64.01
84957;BME280;75252;45.438;-73.814;2024-01-30T11:07:24;102351.84;;;-7.93;63.36
84957;BME280;75252;45.438;-73.814;2024-01-30T11:09:59;102353.63;;;-7.92;64.78
84957;BME280;75252;45.438;-73.814;2024-01-30T11:12:29;102354.63;;;-7.90;64.04
84957;BME280;75252;45.438;-73.814;2024-01-30T11:15:06;102358.59;;;-7.95;64.31
84957;BME280;75252;45.438;-73.814;2024-01-30T11:20:25;102356.13;;;-7.94;63.94
84957;BME280;75252;45.438;-73.814;2024-01-30T11:22:52;102354.63;;;-7.90;63.95
84957;BME280;75252;45.438;-73.814;2024-01-30T11:25:23;102354.34;;;-7.95;64.20
84957;BME280;75252;45.438;-73.814;2024-01-30T11:27:54;102363.75;;;-7.95;65.94
84957;BME280;75252;45.438;-73.814;2024-01-30T11:30:26;102368.34;;;-7.90;65.41
84957;BME280;75252;45.438;-73.814;2024-01-30T11:33:05;102363.19;;;-7.90;65.43
84957;BME280;75252;45.438;-73.814;2024-01-30T11:35:35;102358.16;;;-7.88;66.56
84957;BME280;75252;45.438;-73.814;2024-01-30T11:38:03;102372.97;;;-7.84;66.00
84957;BME280;75252;45.438;-73.814;2024-01-30T11:40:29;102366.59;;;-7.91;66.90
84957;BME280;75252;45.438;-73.814;2024-01-30T11:42:58;102368.72;;;-7.98;65.09
84957;BME280;75252;45.438;-73.814;2024-01-30T11:45:24;102377.84;;;-8.03;67.74
84957;BME280;75252;45.438;-73.814;2024-01-30T11:47:50;102376.03;;;-8.06;66.57
84957;BME280;75252;45.438;-73.814;2024-01-30T11:50:16;102380.63;;;-8.00;65.85
84957;BME280;75252;45.438;-73.814;2024-01-30T11:52:42;102380.44;;;-8.03;65.49
84957;BME280;75252;45.438;-73.814;2024-01-30T11:55:11;102373.25;;;-8.09;67.37
84957;BME280;75252;45.438;-73.814;2024-01-30T11:57:37;102372.97;;;-8.14;64.23
84957;BME280;75252;45.438;-73.814;2024-01-30T12:00:05;102372.97;;;-8.14;66.31
84957;BME280;75252;45.438;-73.814;2024-01-30T12:02:39;102380.06;;;-8.26;66.00
84957;BME280;75252;45.438;-73.814;2024-01-30T12:05:06;102381.28;;;-8.34;65.92
84957;BME280;75252;45.438;-73.814;2024-01-30T12:07:32;102384.22;;;-8.28;67.81
84957;BME280;75252;45.438;-73.814;2024-01-30T12:09:58;102381.28;;;-8.34;66.64
84957;BME280;75252;45.438;-73.814;2024-01-30T12:12:26;102378.88;;;-8.31;66.73
84957;BME280;75252;45.438;-73.814;2024-01-30T12:14:52;102390.22;;;-8.27;66.63
84957;BME280;75252;45.438;-73.814;2024-01-30T12:17:27;102386.88;;;-8.26;65.78
84957;BME280;75252;45.438;-73.814;2024-01-30T12:22:37;102386.31;;;-8.35;66.48
84957;BME280;75252;45.438;-73.814;2024-01-30T12:25:12;102388.19;;;-8.47;65.20
84957;BME280;75252;45.438;-73.814;2024-01-30T12:27:39;102393.88;;;-8.38;67.25
84957;BME280;75252;45.438;-73.814;2024-01-30T12:30:12;102394.31;;;-8.45;67.44
84957;BME280;75252;45.438;-73.814;2024-01-30T12:32:44;102392.28;;;-8.36;66.02
84957;BME280;75252;45.438;-73.814;2024-01-30T12:35:17;102393.22;;;-8.49;65.08